sensor_id;sensor_type;location;lat;lon;timestamp;pressure;altitude;pressure_sealevel;temperature;humidity
30724;BME280;17473;52.286;20.930;2023-10-31T00:00:18;99123.28;;;12.72;100.00
30724;BME280;17473;52.286;20.930;2023-10-31T00:02:45;99111.75;;;12.65;100.00
30724;BME280;17473;52.286;20.930;2023-10-31T00:05:12;99100.34;;;12.78;100.00
30724;BME280;17473;52.286;20.930;2023-10-31T00:07:39;99092.41;;;12.75;100.00
30724;BME280;17473;52.286;20.930;2023-10-31T00:10:07;99100.28;;;12.66;100.00
30724;BME280;17473;52.286;20.930;2023-10-31T00:12:34;99099.41;;;12.62;100.00
30724;BME280;17473;52.286;20.930;2023-10-31T00:15:01;99089.63;;;12.53;100.00
30724;BME280;17473;52.286;20.930;2023-10-31T00:17:28;99080.75;;;12.44;100.00
30724;BME280;17473;52.286;20.930;2023-10-31T00:19:55;99081.72;;;12.58;100.00
30724;BME280;17473;52.286;20.930;2023-10-31T00:22:23;99070.16;;;12.39;100.00
30724;BME280;17473;52.286;20.930;2023-10-31T00:24:51;99078.03;;;12.31;100.00
30724;BME280;17473;52.286;20.930;2023-10-31T00:27:18;99065.69;;;12.30;100.00
30724;BME280;17473;52.286;20.930;2023-10-31T00:29:45;99060.47;;;12.41;100.00
30724;BME280;17473;52.286;20.930;2023-10-31T00:32:12;99063.16;;;12.52;100.00
30724;BME280;17473;52.286;20.930;2023-10-31T00:34:39;99057.75;;;12.35;100.00
30724;BME280;17473;52.286;20.930;2023-10-31T00:37:06;99063.09;;;12.40;100.00
30724;BME280;17473;52.286;20.930;2023-10-31T00:39:33;99063.09;;;12.43;100.00
30724;BME280;17473;52.286;20.930;2023-10-31T00:42:01;99052.56;;;12.52;100.00
30724;BME280;17473;52.286;20.930;2023-10-31T00:44:28;99043.59;;;12.27;100.00
30724;BME280;17473;52.286;20.930;2023-10-31T00:46:55;99049.03;;;12.48;100.00
30724;BME280;17473;52.286;20.930;2023-10-31T00:49:22;99049.00;;;12.51;100.00
30724;BME280;17473;52.286;20.930;2023-10-31T00:51:49;99045.44;;;12.35;100.00
30724;BME280;17473;52.286;20.930;2023-10-31T00:54:16;99033.91;;;12.29;100.00
30724;BME280;17473;52.286;20.930;2023-10-31T00:56:43;99019.84;;;12.37;100.00
30724;BME280;17473;52.286;20.930;2023-10-31T00:59:10;99016.28;;;12.31;100.00
30724;BME280;17473;52.286;20.930;2023-10-31T01:01:37;99014.59;;;12.47;100.00
30724;BME280;17473;52.286;20.930;2023-10-31T01:04:04;98997.75;;;12.29;100.00
30724;BME280;17473;52.286;20.930;2023-10-31T01:06:31;98997.75;;;12.26;100.00
30724;BME280;17473;52.286;20.930;2023-10-31T01:08:59;98995.22;;;12.54;100.00
30724;BME280;17473;52.286;20.930;2023-10-31T01:11:26;98989.88;;;12.42;100.00
30724;BME280;17473;52.286;20.930;2023-10-31T01:13:53;98985.44;;;12.34;100.00
30724;BME280;17473;52.286;20.930;2023-10-31T01:16:20;98978.44;;;12.46;100.00
30724;BME280;17473;52.286;20.930;2023-10-31T01:18:47;98958.09;;;12.42;100.00
30724;BME280;17473;52.286;20.930;2023-10-31T01:21:14;98955.50;;;12.49;100.00
30724;BME280;17473;52.286;20.930;2023-10-31T01:23:41;98955.50;;;12.62;100.00
30724;BME280;17473;52.286;20.930;2023-10-31T01:26:08;98957.28;;;12.57;100.00
30724;BME280;17473;52.286;20.930;2023-10-31T01:28:36;98941.38;;;12.53;100.00
30724;BME280;17473;52.286;20.930;2023-10-31T01:31:03;98935.16;;;12.42;100.00
30724;BME280;17473;52.286;20.930;2023-10-31T01:33:30;98943.13;;;12.48;100.00
30724;BME280;17473;52.286;20.930;2023-10-31T01:35:57;98951.84;;;12.26;100.00
30724;BME280;17473;52.286;20.930;2023-10-31T01:38:24;98945.59;;;12.07;100.00
30724;BME280;17473;52.286;20.930;2023-10-31T01:40:52;98944.81;;;12.26;100.00
30724;BME280;17473;52.286;20.930;2023-10-31T01:43:36;98940.34;;;12.13;100.00
30724;BME280;17473;52.286;20.930;2023-10-31T01:46:04;98939.47;;;12.15;100.00
30724;BME280;17473;52.286;20.930;2023-10-31T01:48:33;98951.00;;;12.33;100.00
30724;BME280;17473;52.286;20.930;2023-10-31T01:51:03;98950.03;;;12.14;100.00
30724;BME280;17473;52.286;20.930;2023-10-31T01:53:34;98928.00;;;12.13;100.00
30724;BME280;17473;52.286;20.930;2023-10-31T01:56:04;98915.72;;;12.34;100.00
30724;BME280;17473;52.286;20.930;2023-10-31T01:58:35;98899.84;;;12.37;100.00
30724;BME280;17473;52.286;20.930;2023-10-31T02:01:04;98880.47;;;12.41;100.00
30724;BME280;17473;52.286;20.930;2023-10-31T02:03:32;98866.31;;;12.37;100.00
30724;BME280;17473;52.286;20.930;2023-10-31T02:06:00;98852.22;;;12.35;100.00
30724;BME280;17473;52.286;20.930;2023-10-31T02:08:28;98854.88;;;12.35;100.00
30724;BME280;17473;52.286;20.930;2023-10-31T02:10:55;98848.69;;;12.32;100.00
30724;BME280;17473;52.286;20.930;2023-10-31T02:13:23;98838.09;;;12.38;100.00
30724;BME280;17473;52.286;20.930;2023-10-31T02:15:50;98833.69;;;12.32;100.00
30724;BME280;17473;52.286;20.930;2023-10-31T02:18:17;98826.63;;;12.30;100.00
30724;BME280;17473;52.286;20.930;2023-10-31T02:20:45;98826.63;;;12.42;100.00
30724;BME280;17473;52.286;20.930;2023-10-31T02:23:12;98821.31;;;12.33;100.00
30724;BME280;17473;52.286;20.930;2023-10-31T02:25:42;98820.44;;;12.26;100.00
30724;BME280;17473;52.286;20.930;2023-10-31T02:28:09;98804.59;;;12.37;100.00
30724;BME280;17473;52.286;20.930;2023-10-31T02:30:36;98814.28;;;12.55;100.00
30724;BME280;17473;52.286;20.930;2023-10-31T02:33:03;98818.69;;;12.37;100.00
30724;BME280;17473;52.286;20.930;2023-10-31T02:35:30;98811.66;;;12.53;100.00
30724;BME280;17473;52.286;20.930;2023-10-31T02:37:57;98802.84;;;12.64;100.00
30724;BME280;17473;52.286;20.930;2023-10-31T02:40:24;98800.19;;;12.48;100.00
30724;BME280;17473;52.286;20.930;2023-10-31T02:42:52;98803.72;;;12.58;100.00
30724;BME280;17473;52.286;20.930;2023-10-31T02:45:19;98803.72;;;12.61;100.00
30724;BME280;17473;52.286;20.930;2023-10-31T02:47:46;98806.34;;;12.64;100.00
30724;BME280;17473;52.286;20.930;2023-10-31T02:50:14;98789.63;;;12.62;100.00
30724;BME280;17473;52.286;20.930;2023-10-31T02:52:41;98788.69;;;12.82;100.00
30724;BME280;17473;52.286;20.930;2023-10-31T02:55:08;98786.97;;;12.90;100.00
30724;BME280;17473;52.286;20.930;2023-10-31T02:57:35;98778.13;;;12.71;100.00
30724;BME280;17473;52.286;20.930;2023-10-31T03:00:03;98776.38;;;12.72;100.00
30724;BME280;17473;52.286;20.930;2023-10-31T03:02:31;98760.44;;;13.01;100.00
30724;BME280;17473;52.286;20.930;2023-10-31T03:04:58;98748.97;;;12.88;100.00
30724;BME280;17473;52.286;20.930;2023-10-31T03:07:25;98748.09;;;12.88;100.00
30724;BME280;17473;52.286;20.930;2023-10-31T03:09:53;98741.03;;;12.82;100.00
30724;BME280;17473;52.286;20.930;2023-10-31T03:12:21;98735.75;;;12.80;100.00
30724;BME280;17473;52.286;20.930;2023-10-31T03:14:48;98741.91;;;12.89;100.00
30724;BME280;17473;52.286;20.930;2023-10-31T03:17:15;98747.22;;;12.79;100.00
30724;BME280;17473;52.286;20.930;2023-10-31T03:19:42;98744.56;;;12.89;100.00
30724;BME280;17473;52.286;20.930;2023-10-31T03:22:09;98736.63;;;12.87;100.00
30724;BME280;17473;52.286;20.930;2023-10-31T03:24:36;98739.25;;;12.99;100.00
30724;BME280;17473;52.286;20.930;2023-10-31T03:27:03;98726.88;;;13.05;100.00
30724;BME280;17473;52.286;20.930;2023-10-31T03:29:30;98732.16;;;13.08;100.00
30724;BME280;17473;52.286;20.930;2023-10-31T03:31:57;98725.97;;;13.03;100.00
30724;BME280;17473;52.286;20.930;2023-10-31T03:34:25;98718.88;;;13.23;100.00
30724;BME280;17473;52.286;20.930;2023-10-31T03:36:52;98711.84;;;13.04;100.00
30724;BME280;17473;52.286;20.930;2023-10-31T03:39:19;98724.22;;;13.12;100.00
30724;BME280;17473;52.286;20.930;2023-10-31T03:41:46;98704.78;;;13.07;100.00
30724;BME280;17473;52.286;20.930;2023-10-31T03:44:13;98702.09;;;13.21;100.00
30724;BME280;17473;52.286;20.930;2023-10-31T03:46:40;98682.69;;;13.11;100.00
30724;BME280;17473;52.286;20.930;2023-10-31T03:49:08;98682.56;;;13.38;100.00
30724;BME280;17473;52.286;20.930;2023-10-31T03:51:35;98682.66;;;13.19;100.00
30724;BME280;17473;52.286;20.930;2023-10-31T03:54:03;98673.84;;;13.17;100.00
30724;BME280;17473;52.286;20.930;2023-10-31T03:56:30;98664.16;;;13.11;100.00
30724;BME280;17473;52.286;20.930;2023-10-31T03:58:57;98652.63;;;13.15;100.00
30724;BME280;17473;52.286;20.930;2023-10-31T04:01:24;98657.00;;;13.34;100.00
30724;BME280;17473;52.286;20.930;2023-10-31T04:03:51;98654.41;;;13.20;100.00
30724;BME280;17473;52.286;20.930;2023-10-31T04:06:19;98654.38;;;13.18;100.00
30724;BME280;17473;52.286;20.930;2023-10-31T04:08:46;98652.63;;;13.15;100.00
30724;BME280;17473;52.286;20.930;2023-10-31T04:11:13;98634.91;;;13.35;100.00
30724;BME280;17473;52.286;20.930;2023-10-31T04:13:40;98645.56;;;13.21;100.00
30724;BME280;17473;52.286;20.930;2023-10-31T04:16:07;98638.41;;;13.32;100.00
30724;BME280;17473;52.286;20.930;2023-10-31T04:18:36;98624.28;;;13.44;100.00
30724;BME280;17473;52.286;20.930;2023-10-31T04:21:04;98633.13;;;13.30;100.00
30724;BME280;17473;52.286;20.930;2023-10-31T04:23:31;98626.91;;;13.42;100.00
30724;BME280;17473;52.286;20.930;2023-10-31T04:25:58;98601.28;;;13.41;100.00
30724;BME280;17473;52.286;20.930;2023-10-31T04:28:25;98593.31;;;13.46;100.00
30724;BME280;17473;52.286;20.930;2023-10-31T04:30:52;98600.31;;;13.63;100.00
30724;BME280;17473;52.286;20.930;2023-10-31T04:33:19;98608.22;;;13.66;100.00
30724;BME280;17473;52.286;20.930;2023-10-31T04:35:46;98612.56;;;13.76;100.00
30724;BME280;17473;52.286;20.930;2023-10-31T04:38:14;98603.03;;;13.53;100.00
30724;BME280;17473;52.286;20.930;2023-10-31T04:40:41;98601.94;;;13.79;100.00
30724;BME280;17473;52.286;20.930;2023-10-31T04:43:09;98602.00;;;13.71;100.00
30724;BME280;17473;52.286;20.930;2023-10-31T04:45:36;98575.50;;;13.68;100.00
30724;BME280;17473;52.286;20.930;2023-10-31T04:48:03;98570.13;;;13.77;100.00
30724;BME280;17473;52.286;20.930;2023-10-31T04:50:31;98578.94;;;13.80;100.00
30724;BME280;17473;52.286;20.930;2023-10-31T04:52:58;98568.34;;;13.76;100.00
30724;BME280;17473;52.286;20.930;2023-10-31T04:55:25;98569.16;;;13.89;100.00
30724;BME280;17473;52.286;20.930;2023-10-31T04:57:52;98556.84;;;13.79;100.00
30724;BME280;17473;52.286;20.930;2023-10-31T05:00:19;98555.91;;;13.89;100.00
30724;BME280;17473;52.286;20.930;2023-10-31T05:02:46;98546.03;;;14.01;99.62
30724;BME280;17473;52.286;20.930;2023-10-31T05:05:15;98541.81;;;13.80;100.00
30724;BME280;17473;52.286;20.930;2023-10-31T05:07:42;98545.28;;;13.88;99.90
30724;BME280;17473;52.286;20.930;2023-10-31T05:10:10;98560.22;;;14.01;98.84
30724;BME280;17473;52.286;20.930;2023-10-31T05:12:37;98522.13;;;14.07;97.58
30724;BME280;17473;52.286;20.930;2023-10-31T05:15:05;98519.25;;;14.25;96.34
30724;BME280;17473;52.286;20.930;2023-10-31T05:17:32;98513.06;;;14.25;95.50
30724;BME280;17473;52.286;20.930;2023-10-31T05:20:00;98528.34;;;14.03;97.05
30724;BME280;17473;52.286;20.930;2023-10-31T05:22:27;98523.00;;;14.04;97.00
30724;BME280;17473;52.286;20.930;2023-10-31T05:24:54;98499.88;;;14.19;96.11
30724;BME280;17473;52.286;20.930;2023-10-31T05:27:21;98516.66;;;14.21;95.56
30724;BME280;17473;52.286;20.930;2023-10-31T05:29:49;98515.03;;;14.07;96.59
30724;BME280;17473;52.286;20.930;2023-10-31T05:32:16;98513.13;;;14.20;95.39
30724;BME280;17473;52.286;20.930;2023-10-31T05:34:43;98506.03;;;14.21;95.51
30724;BME280;17473;52.286;20.930;2023-10-31T05:37:10;98506.09;;;14.15;95.41
30724;BME280;17473;52.286;20.930;2023-10-31T05:39:37;98506.09;;;14.18;95.25
30724;BME280;17473;52.286;20.930;2023-10-31T05:42:04;98513.06;;;14.27;94.54
30724;BME280;17473;52.286;20.930;2023-10-31T05:44:31;98495.19;;;14.43;93.40
30724;BME280;17473;52.286;20.930;2023-10-31T05:46:58;98494.41;;;14.31;94.13
30724;BME280;17473;52.286;20.930;2023-10-31T05:49:26;98500.50;;;14.39;93.34
30724;BME280;17473;52.286;20.930;2023-10-31T05:51:54;98509.44;;;14.35;93.83
30724;BME280;17473;52.286;20.930;2023-10-31T05:54:21;98506.81;;;14.34;93.32
30724;BME280;17473;52.286;20.930;2023-10-31T05:56:48;98511.06;;;14.47;92.37
30724;BME280;17473;52.286;20.930;2023-10-31T05:59:15;98479.13;;;14.53;92.09
30724;BME280;17473;52.286;20.930;2023-10-31T06:01:42;98507.63;;;14.36;93.46
30724;BME280;17473;52.286;20.930;2023-10-31T06:04:10;98493.38;;;14.46;92.19
30724;BME280;17473;52.286;20.930;2023-10-31T06:06:38;98484.47;;;14.49;92.43
30724;BME280;17473;52.286;20.930;2023-10-31T06:09:06;98499.56;;;14.45;91.76
30724;BME280;17473;52.286;20.930;2023-10-31T06:11:33;98492.34;;;14.60;91.26
30724;BME280;17473;52.286;20.930;2023-10-31T06:14:00;98521.50;;;14.61;90.93
30724;BME280;17473;52.286;20.930;2023-10-31T06:16:27;98518.78;;;14.70;89.75
30724;BME280;17473;52.286;20.930;2023-10-31T06:18:54;98495.81;;;14.66;90.08
30724;BME280;17473;52.286;20.930;2023-10-31T06:21:21;98523.25;;;14.65;89.89
30724;BME280;17473;52.286;20.930;2023-10-31T06:23:49;98505.47;;;14.72;88.95
30724;BME280;17473;52.286;20.930;2023-10-31T06:26:16;98506.44;;;14.68;89.27
30724;BME280;17473;52.286;20.930;2023-10-31T06:28:43;98503.56;;;14.83;88.37
30724;BME280;17473;52.286;20.930;2023-10-31T06:31:28;98499.44;;;14.58;90.72
30724;BME280;17473;52.286;20.930;2023-10-31T06:33:55;98496.66;;;14.70;90.52
30724;BME280;17473;52.286;20.930;2023-10-31T06:36:22;98499.31;;;14.70;90.63
30724;BME280;17473;52.286;20.930;2023-10-31T06:38:50;98494.84;;;14.74;91.02
30724;BME280;17473;52.286;20.930;2023-10-31T06:41:17;98495.81;;;14.68;91.93
30724;BME280;17473;52.286;20.930;2023-10-31T06:43:44;98485.00;;;14.80;90.77
30724;BME280;17473;52.286;20.930;2023-10-31T06:46:11;98483.25;;;14.81;90.75
30724;BME280;17473;52.286;20.930;2023-10-31T06:48:38;98497.28;;;14.89;89.72
30724;BME280;17473;52.286;20.930;2023-10-31T06:51:05;98491.13;;;14.87;89.80
30724;BME280;17473;52.286;20.930;2023-10-31T06:53:32;98493.78;;;14.87;89.82
30724;BME280;17473;52.286;20.930;2023-10-31T06:56:00;98498.34;;;14.77;91.14
30724;BME280;17473;52.286;20.930;2023-10-31T06:58:27;98507.97;;;14.84;91.54
30724;BME280;17473;52.286;20.930;2023-10-31T07:00:54;98494.38;;;15.06;91.12
30724;BME280;17473;52.286;20.930;2023-10-31T07:03:22;98490.28;;;14.83;90.99
30724;BME280;17473;52.286;20.930;2023-10-31T07:05:49;98484.84;;;14.93;91.27
30724;BME280;17473;52.286;20.930;2023-10-31T07:08:16;98491.06;;;14.92;91.72
30724;BME280;17473;52.286;20.930;2023-10-31T07:10:43;98486.25;;;15.18;89.23
30724;BME280;17473;52.286;20.930;2023-10-31T07:13:11;98491.09;;;14.89;90.52
30724;BME280;17473;52.286;20.930;2023-10-31T07:15:39;98500.72;;;14.97;90.29
30724;BME280;17473;52.286;20.930;2023-10-31T07:18:06;98506.78;;;15.07;88.87
30724;BME280;17473;52.286;20.930;2023-10-31T07:20:34;98488.25;;;15.01;88.55
30724;BME280;17473;52.286;20.930;2023-10-31T07:23:01;98460.69;;;15.10;88.27
30724;BME280;17473;52.286;20.930;2023-10-31T07:25:28;98489.00;;;15.11;87.98
30724;BME280;17473;52.286;20.930;2023-10-31T07:27:55;98474.72;;;15.20;87.65
30724;BME280;17473;52.286;20.930;2023-10-31T07:30:23;98473.59;;;15.33;86.45
30724;BME280;17473;52.286;20.930;2023-10-31T07:32:50;98467.91;;;15.01;87.46
30724;BME280;17473;52.286;20.930;2023-10-31T07:35:17;98465.19;;;15.05;87.93
30724;BME280;17473;52.286;20.930;2023-10-31T07:37:46;98456.25;;;15.10;86.81
30724;BME280;17473;52.286;20.930;2023-10-31T07:40:13;98451.78;;;15.11;87.25
30724;BME280;17473;52.286;20.930;2023-10-31T07:42:41;98448.22;;;15.13;86.81
30724;BME280;17473;52.286;20.930;2023-10-31T07:45:08;98446.63;;;15.03;87.21
30724;BME280;17473;52.286;20.930;2023-10-31T07:47:36;98437.75;;;15.02;87.39
30724;BME280;17473;52.286;20.930;2023-10-31T07:50:04;98452.75;;;15.07;87.31
30724;BME280;17473;52.286;20.930;2023-10-31T07:52:32;98451.03;;;15.02;87.34
30724;BME280;17473;52.286;20.930;2023-10-31T07:54:59;98473.91;;;15.14;86.74
30724;BME280;17473;52.286;20.930;2023-10-31T07:57:26;98456.84;;;15.28;86.63
30724;BME280;17473;52.286;20.930;2023-10-31T07:59:53;98466.06;;;15.05;87.99
30724;BME280;17473;52.286;20.930;2023-10-31T08:02:20;98446.38;;;15.18;87.57
30724;BME280;17473;52.286;20.930;2023-10-31T08:04:47;98444.09;;;14.94;89.36
30724;BME280;17473;52.286;20.930;2023-10-31T08:07:14;98420.28;;;14.88;89.41
30724;BME280;17473;52.286;20.930;2023-10-31T08:09:42;98421.84;;;15.01;89.14
30724;BME280;17473;52.286;20.930;2023-10-31T08:12:09;98418.84;;;15.21;87.97
30724;BME280;17473;52.286;20.930;2023-10-31T08:14:37;98424.91;;;15.29;87.13
30724;BME280;17473;52.286;20.930;2023-10-31T08:17:04;98425.00;;;15.25;87.13
30724;BME280;17473;52.286;20.930;2023-10-31T08:19:31;98440.72;;;15.40;86.55
30724;BME280;17473;52.286;20.930;2023-10-31T08:21:58;98430.88;;;15.45;86.72
30724;BME280;17473;52.286;20.930;2023-10-31T08:24:25;98421.94;;;15.48;85.17
30724;BME280;17473;52.286;20.930;2023-10-31T08:26:52;98433.47;;;15.48;84.38
30724;BME280;17473;52.286;20.930;2023-10-31T08:29:19;98428.97;;;15.52;83.88
30724;BME280;17473;52.286;20.930;2023-10-31T08:31:46;98420.94;;;15.57;83.74
30724;BME280;17473;52.286;20.930;2023-10-31T08:34:13;98414.50;;;15.69;83.52
30724;BME280;17473;52.286;20.930;2023-10-31T08:36:40;98404.72;;;15.71;83.74
30724;BME280;17473;52.286;20.930;2023-10-31T08:39:07;98401.88;;;15.80;82.74
30724;BME280;17473;52.286;20.930;2023-10-31T08:41:51;98405.16;;;15.96;81.51
30724;BME280;17473;52.286;20.930;2023-10-31T08:44:18;98399.13;;;15.86;81.48
30724;BME280;17473;52.286;20.930;2023-10-31T08:46:45;98412.00;;;16.09;80.14
30724;BME280;17473;52.286;20.930;2023-10-31T08:49:16;98412.13;;;16.03;80.39
30724;BME280;17473;52.286;20.930;2023-10-31T08:51:44;98408.38;;;16.14;79.65
30724;BME280;17473;52.286;20.930;2023-10-31T08:54:12;98407.34;;;16.21;79.28
30724;BME280;17473;52.286;20.930;2023-10-31T08:56:39;98410.72;;;16.29;79.02
30724;BME280;17473;52.286;20.930;2023-10-31T08:59:06;98412.75;;;16.15;79.95
30724;BME280;17473;52.286;20.930;2023-10-31T09:01:33;98413.19;;;16.37;78.82
30724;BME280;17473;52.286;20.930;2023-10-31T09:04:00;98406.16;;;16.34;77.42
30724;BME280;17473;52.286;20.930;2023-10-31T09:06:28;98405.88;;;16.48;77.22
30724;BME280;17473;52.286;20.930;2023-10-31T09:08:55;98409.69;;;16.36;76.97
30724;BME280;17473;52.286;20.930;2023-10-31T09:11:22;98408.72;;;16.40;76.09
30724;BME280;17473;52.286;20.930;2023-10-31T09:13:49;98409.47;;;16.46;75.99
30724;BME280;17473;52.286;20.930;2023-10-31T09:16:16;98390.13;;;16.37;75.47
30724;BME280;17473;52.286;20.930;2023-10-31T09:18:43;98402.41;;;16.45;75.23
30724;BME280;17473;52.286;20.930;2023-10-31T09:21:10;98398.47;;;16.63;74.53
30724;BME280;17473;52.286;20.930;2023-10-31T09:23:38;98392.75;;;16.40;75.63
30724;BME280;17473;52.286;20.930;2023-10-31T09:26:05;98404.16;;;16.46;74.95
30724;BME280;17473;52.286;20.930;2023-10-31T09:28:32;98418.13;;;16.57;74.46
30724;BME280;17473;52.286;20.930;2023-10-31T09:30:59;98420.38;;;16.33;75.60
30724;BME280;17473;52.286;20.930;2023-10-31T09:33:27;98421.19;;;16.38;75.43
30724;BME280;17473;52.286;20.930;2023-10-31T09:35:55;98436.16;;;16.44;74.94
30724;BME280;17473;52.286;20.930;2023-10-31T09:38:22;98437.91;;;16.43;75.41
30724;BME280;17473;52.286;20.930;2023-10-31T09:40:49;98438.91;;;16.38;76.88
30724;BME280;17473;52.286;20.930;2023-10-31T09:43:17;98439.88;;;16.35;77.34
30724;BME280;17473;52.286;20.930;2023-10-31T09:45:45;98430.22;;;16.31;77.31
30724;BME280;17473;52.286;20.930;2023-10-31T09:48:14;98439.22;;;16.24;77.67
30724;BME280;17473;52.286;20.930;2023-10-31T09:50:41;98429.31;;;16.31;77.90
30724;BME280;17473;52.286;20.930;2023-10-31T09:53:08;98436.22;;;16.41;77.37
30724;BME280;17473;52.286;20.930;2023-10-31T09:55:37;98441.34;;;16.50;77.07
30724;BME280;17473;52.286;20.930;2023-10-31T09:58:05;98431.31;;;16.63;76.64
30724;BME280;17473;52.286;20.930;2023-10-31T10:00:32;98443.00;;;16.56;75.34
30724;BME280;17473;52.286;20.930;2023-10-31T10:03:00;98439.50;;;16.54;75.16
30724;BME280;17473;52.286;20.930;2023-10-31T10:05:28;98429.28;;;16.73;74.65
30724;BME280;17473;52.286;20.930;2023-10-31T10:07:58;98427.72;;;16.64;74.19
30724;BME280;17473;52.286;20.930;2023-10-31T10:10:25;98434.56;;;16.76;73.93
30724;BME280;17473;52.286;20.930;2023-10-31T10:12:52;98441.97;;;16.63;74.48
30724;BME280;17473;52.286;20.930;2023-10-31T10:15:19;98443.41;;;16.77;73.71
30724;BME280;17473;52.286;20.930;2023-10-31T10:17:51;98438.09;;;16.78;73.99
30724;BME280;17473;52.286;20.930;2023-10-31T10:20:19;98426.63;;;16.73;73.58
30724;BME280;17473;52.286;20.930;2023-10-31T10:22:46;98424.56;;;16.87;73.06
30724;BME280;17473;52.286;20.930;2023-10-31T10:25:18;98430.06;;;17.19;72.30
30724;BME280;17473;52.286;20.930;2023-10-31T10:27:47;98441.72;;;17.52;70.52
30724;BME280;17473;52.286;20.930;2023-10-31T10:30:15;98435.53;;;17.49;70.59
30724;BME280;17473;52.286;20.930;2023-10-31T10:32:43;98453.84;;;17.28;70.67
30724;BME280;17473;52.286;20.930;2023-10-31T10:35:10;98445.53;;;17.41;71.51
30724;BME280;17473;52.286;20.930;2023-10-31T10:37:38;98435.47;;;17.52;71.18
30724;BME280;17473;52.286;20.930;2023-10-31T10:40:11;98445.38;;;17.81;69.17
30724;BME280;17473;52.286;20.930;2023-10-31T10:42:47;98442.59;;;17.86;69.03
30724;BME280;17473;52.286;20.930;2023-10-31T10:45:16;98433.97;;;17.76;69.72
30724;BME280;17473;52.286;20.930;2023-10-31T10:47:49;98442.22;;;17.67;69.98
30724;BME280;17473;52.286;20.930;2023-10-31T10:50:20;98432.28;;;17.38;71.37
30724;BME280;17473;52.286;20.930;2023-10-31T10:52:50;98424.81;;;17.52;71.08
30724;BME280;17473;52.286;20.930;2023-10-31T10:55:26;98423.16;;;17.81;70.38
30724;BME280;17473;52.286;20.930;2023-10-31T10:58:20;98436.59;;;17.78;70.86
30724;BME280;17473;52.286;20.930;2023-10-31T11:00:50;98438.38;;;17.77;71.43
30724;BME280;17473;52.286;20.930;2023-10-31T11:03:19;98444.81;;;17.68;71.86
30724;BME280;17473;52.286;20.930;2023-10-31T11:05:48;98444.56;;;17.79;72.51
30724;BME280;17473;52.286;20.930;2023-10-31T11:08:16;98433.75;;;17.84;72.54
30724;BME280;17473;52.286;20.930;2023-10-31T11:10:45;98445.06;;;17.94;72.85
30724;BME280;17473;52.286;20.930;2023-10-31T11:13:13;98443.59;;;17.82;73.42
30724;BME280;17473;52.286;20.930;2023-10-31T11:15:41;98431.13;;;17.82;73.34
30724;BME280;17473;52.286;20.930;2023-10-31T11:18:10;98450.78;;;17.80;73.70
30724;BME280;17473;52.286;20.930;2023-10-31T11:20:38;98443.44;;;17.88;73.79
30724;BME280;17473;52.286;20.930;2023-10-31T11:23:06;98472.41;;;17.69;75.03
30724;BME280;17473;52.286;20.930;2023-10-31T11:25:34;98470.47;;;17.74;74.57
30724;BME280;17473;52.286;20.930;2023-10-31T11:28:16;98458.97;;;17.72;75.10
30724;BME280;17473;52.286;20.930;2023-10-31T11:30:49;98461.69;;;17.71;75.72
30724;BME280;17473;52.286;20.930;2023-10-31T11:33:20;98466.28;;;17.65;76.09
30724;BME280;17473;52.286;20.930;2023-10-31T11:36:03;98468.94;;;17.65;76.85
30724;BME280;17473;52.286;20.930;2023-10-31T11:38:35;98471.72;;;17.61;77.70
30724;BME280;17473;52.286;20.930;2023-10-31T11:41:04;98471.63;;;17.65;77.85
30724;BME280;17473;52.286;20.930;2023-10-31T11:46:24;98460.50;;;17.48;79.99
30724;BME280;17473;52.286;20.930;2023-10-31T11:48:56;98469.19;;;17.55;79.74
30724;BME280;17473;52.286;20.930;2023-10-31T11:51:24;98470.28;;;17.47;80.71
30724;BME280;17473;52.286;20.930;2023-10-31T11:53:52;98465.00;;;17.44;80.95
30724;BME280;17473;52.286;20.930;2023-10-31T11:56:22;98472.97;;;17.46;82.08
30724;BME280;17473;52.286;20.930;2023-10-31T11:59:04;98482.63;;;17.51;82.07
30724;BME280;17473;52.286;20.930;2023-10-31T12:01:31;98479.06;;;17.52;82.37
30724;BME280;17473;52.286;20.930;2023-10-31T12:04:00;98489.63;;;17.56;82.46
30724;BME280;17473;52.286;20.930;2023-10-31T12:06:29;98487.75;;;17.59;82.24
30724;BME280;17473;52.286;20.930;2023-10-31T12:08:59;98494.44;;;17.76;82.17
30724;BME280;17473;52.286;20.930;2023-10-31T12:11:27;98486.91;;;17.57;82.48
30724;BME280;17473;52.286;20.930;2023-10-31T12:14:00;98494.91;;;17.57;82.55
30724;BME280;17473;52.286;20.930;2023-10-31T12:16:30;98489.47;;;17.62;81.36
30724;BME280;17473;52.286;20.930;2023-10-31T12:19:04;98488.09;;;17.81;81.09
30724;BME280;17473;52.286;20.930;2023-10-31T12:21:57;98492.25;;;17.57;82.43
30724;BME280;17473;52.286;20.930;2023-10-31T12:24:25;98491.38;;;17.57;82.43
30724;BME280;17473;52.286;20.930;2023-10-31T12:26:52;98490.75;;;17.45;82.83
30724;BME280;17473;52.286;20.930;2023-10-31T12:29:20;98506.19;;;17.70;81.96
30724;BME280;17473;52.286;20.930;2023-10-31T12:31:50;98500.91;;;17.67;82.12
30724;BME280;17473;52.286;20.930;2023-10-31T12:34:23;98508.63;;;17.42;83.18
30724;BME280;17473;52.286;20.930;2023-10-31T12:36:52;98501.19;;;17.56;82.93
30724;BME280;17473;52.286;20.930;2023-10-31T12:39:25;98517.75;;;17.33;83.53
30724;BME280;17473;52.286;20.930;2023-10-31T12:41:54;98512.22;;;17.41;83.30
30724;BME280;17473;52.286;20.930;2023-10-31T12:44:26;98525.16;;;17.20;84.74
30724;BME280;17473;52.286;20.930;2023-10-31T12:46:55;98527.22;;;17.05;85.84
30724;BME280;17473;52.286;20.930;2023-10-31T12:49:23;98517.41;;;17.08;85.69
30724;BME280;17473;52.286;20.930;2023-10-31T12:52:04;98522.34;;;16.84;87.00